sensor_id;sensor_type;location;lat;lon;timestamp;temperature;humidity
40257;DHT22;25977;45.462;9.210;2023-04-15T00:01:19;15.50;42.80
40257;DHT22;25977;45.462;9.210;2023-04-15T00:03:45;15.50;43.10
40257;DHT22;25977;45.462;9.210;2023-04-15T00:06:12;15.40;43.10
40257;DHT22;25977;45.462;9.210;2023-04-15T00:08:38;15.40;43.20
40257;DHT22;25977;45.462;9.210;2023-04-15T00:11:04;15.40;43.10
40257;DHT22;25977;45.462;9.210;2023-04-15T00:13:31;15.40;42.90
40257;DHT22;25977;45.462;9.210;2023-04-15T00:15:58;15.40;43.10
40257;DHT22;25977;45.462;9.210;2023-04-15T00:18:24;15.40;43.40
40257;DHT22;25977;45.462;9.210;2023-04-15T00:20:50;15.40;43.30
40257;DHT22;25977;45.462;9.210;2023-04-15T00:23:15;15.40;43.80
40257;DHT22;25977;45.462;9.210;2023-04-15T00:25:41;15.40;43.40
40257;DHT22;25977;45.462;9.210;2023-04-15T00:28:06;15.40;43.70
40257;DHT22;25977;45.462;9.210;2023-04-15T00:30:33;15.40;43.90
40257;DHT22;25977;45.462;9.210;2023-04-15T00:32:59;15.30;43.60
40257;DHT22;25977;45.462;9.210;2023-04-15T00:35:26;15.30;43.60
40257;DHT22;25977;45.462;9.210;2023-04-15T00:37:52;15.30;43.70
40257;DHT22;25977;45.462;9.210;2023-04-15T00:40:20;15.20;44.30
40257;DHT22;25977;45.462;9.210;2023-04-15T00:42:46;15.30;44.00
40257;DHT22;25977;45.462;9.210;2023-04-15T00:45:12;15.20;44.00
40257;DHT22;25977;45.462;9.210;2023-04-15T00:47:40;15.10;44.20
40257;DHT22;25977;45.462;9.210;2023-04-15T00:50:07;15.10;44.50
40257;DHT22;25977;45.462;9.210;2023-04-15T00:52:33;15.00;44.60
40257;DHT22;25977;45.462;9.210;2023-04-15T00:55:00;14.90;45.00
40257;DHT22;25977;45.462;9.210;2023-04-15T00:57:27;15.00;45.10
40257;DHT22;25977;45.462;9.210;2023-04-15T00:59:55;15.00;45.30
40257;DHT22;25977;45.462;9.210;2023-04-15T01:02:21;14.90;45.60
40257;DHT22;25977;45.462;9.210;2023-04-15T01:04:48;14.90;47.60
40257;DHT22;25977;45.462;9.210;2023-04-15T01:07:15;14.90;48.30
40257;DHT22;25977;45.462;9.210;2023-04-15T01:09:42;14.60;49.60
40257;DHT22;25977;45.462;9.210;2023-04-15T01:12:09;14.60;49.70
40257;DHT22;25977;45.462;9.210;2023-04-15T01:14:36;14.70;50.00
40257;DHT22;25977;45.462;9.210;2023-04-15T01:17:02;14.80;50.10
40257;DHT22;25977;45.462;9.210;2023-04-15T01:19:28;14.80;50.50
40257;DHT22;25977;45.462;9.210;2023-04-15T01:21:55;14.70;51.20
40257;DHT22;25977;45.462;9.210;2023-04-15T01:24:22;14.70;51.20
40257;DHT22;25977;45.462;9.210;2023-04-15T01:26:49;14.70;51.40
40257;DHT22;25977;45.462;9.210;2023-04-15T01:29:15;14.70;51.90
40257;DHT22;25977;45.462;9.210;2023-04-15T01:31:51;14.70;52.10
40257;DHT22;25977;45.462;9.210;2023-04-15T01:34:17;14.60;52.70
40257;DHT22;25977;45.462;9.210;2023-04-15T01:36:43;14.60;52.70
40257;DHT22;25977;45.462;9.210;2023-04-15T01:39:09;14.60;52.90
40257;DHT22;25977;45.462;9.210;2023-04-15T01:41:35;14.60;53.10
40257;DHT22;25977;45.462;9.210;2023-04-15T01:44:01;14.50;54.30
40257;DHT22;25977;45.462;9.210;2023-04-15T01:46:26;14.50;53.70
40257;DHT22;25977;45.462;9.210;2023-04-15T01:48:52;14.50;54.10
40257;DHT22;25977;45.462;9.210;2023-04-15T01:51:18;14.50;54.50
40257;DHT22;25977;45.462;9.210;2023-04-15T01:53:44;14.50;54.80
40257;DHT22;25977;45.462;9.210;2023-04-15T01:56:10;14.50;55.30
40257;DHT22;25977;45.462;9.210;2023-04-15T01:58:36;14.50;55.80
40257;DHT22;25977;45.462;9.210;2023-04-15T02:01:02;14.50;57.10
40257;DHT22;25977;45.462;9.210;2023-04-15T02:03:30;14.40;57.50
40257;DHT22;25977;45.462;9.210;2023-04-15T02:05:56;14.30;58.60
40257;DHT22;25977;45.462;9.210;2023-04-15T02:08:22;14.30;58.50
40257;DHT22;25977;45.462;9.210;2023-04-15T02:10:48;14.30;58.60
40257;DHT22;25977;45.462;9.210;2023-04-15T02:13:13;14.30;59.70
40257;DHT22;25977;45.462;9.210;2023-04-15T02:15:39;14.20;60.00
40257;DHT22;25977;45.462;9.210;2023-04-15T02:18:05;14.20;60.10
40257;DHT22;25977;45.462;9.210;2023-04-15T02:20:31;14.20;60.40
40257;DHT22;25977;45.462;9.210;2023-04-15T02:22:57;14.20;60.90
40257;DHT22;25977;45.462;9.210;2023-04-15T02:25:23;14.20;60.90
40257;DHT22;25977;45.462;9.210;2023-04-15T02:27:48;14.20;61.00
40257;DHT22;25977;45.462;9.210;2023-04-15T02:30:18;14.30;61.10
40257;DHT22;25977;45.462;9.210;2023-04-15T02:32:45;14.20;61.60
40257;DHT22;25977;45.462;9.210;2023-04-15T02:35:11;14.20;61.80
40257;DHT22;25977;45.462;9.210;2023-04-15T02:37:37;14.20;61.80
40257;DHT22;25977;45.462;9.210;2023-04-15T02:40:11;14.20;61.90
40257;DHT22;25977;45.462;9.210;2023-04-15T02:42:38;14.20;62.80
40257;DHT22;25977;45.462;9.210;2023-04-15T02:45:06;14.20;62.80
40257;DHT22;25977;45.462;9.210;2023-04-15T02:47:34;14.10;63.50
40257;DHT22;25977;45.462;9.210;2023-04-15T02:50:02;14.10;63.60
40257;DHT22;25977;45.462;9.210;2023-04-15T02:52:28;14.20;63.80
40257;DHT22;25977;45.462;9.210;2023-04-15T02:54:54;14.10;64.20
40257;DHT22;25977;45.462;9.210;2023-04-15T02:57:26;14.10;64.60
40257;DHT22;25977;45.462;9.210;2023-04-15T02:59:53;14.00;65.20
40257;DHT22;25977;45.462;9.210;2023-04-15T03:02:18;14.10;65.00
40257;DHT22;25977;45.462;9.210;2023-04-15T03:04:44;14.10;65.10
40257;DHT22;25977;45.462;9.210;2023-04-15T03:07:10;14.10;65.40
40257;DHT22;25977;45.462;9.210;2023-04-15T03:09:36;14.10;65.50
40257;DHT22;25977;45.462;9.210;2023-04-15T03:12:04;14.00;65.70
40257;DHT22;25977;45.462;9.210;2023-04-15T03:14:30;14.00;65.80
40257;DHT22;25977;45.462;9.210;2023-04-15T03:16:55;14.00;66.30
40257;DHT22;25977;45.462;9.210;2023-04-15T03:19:23;13.90;66.30
40257;DHT22;25977;45.462;9.210;2023-04-15T03:21:49;13.90;66.50
40257;DHT22;25977;45.462;9.210;2023-04-15T03:24:15;13.90;66.70
40257;DHT22;25977;45.462;9.210;2023-04-15T03:26:41;13.90;66.70
40257;DHT22;25977;45.462;9.210;2023-04-15T03:29:13;13.90;66.90
40257;DHT22;25977;45.462;9.210;2023-04-15T03:31:40;13.90;66.90
40257;DHT22;25977;45.462;9.210;2023-04-15T03:34:06;13.60;67.70
40257;DHT22;25977;45.462;9.210;2023-04-15T03:36:32;13.60;68.10
40257;DHT22;25977;45.462;9.210;2023-04-15T03:38:58;13.70;68.40
40257;DHT22;25977;45.462;9.210;2023-04-15T03:41:23;13.70;67.90
40257;DHT22;25977;45.462;9.210;2023-04-15T03:43:49;13.60;68.40
40257;DHT22;25977;45.462;9.210;2023-04-15T03:46:17;13.70;68.10
40257;DHT22;25977;45.462;9.210;2023-04-15T03:48:43;13.70;67.90
40257;DHT22;25977;45.462;9.210;2023-04-15T03:51:08;13.80;68.00
40257;DHT22;25977;45.462;9.210;2023-04-15T03:53:34;13.80;68.60
40257;DHT22;25977;45.462;9.210;2023-04-15T03:56:00;13.70;68.20
40257;DHT22;25977;45.462;9.210;2023-04-15T03:58:26;13.70;68.20
40257;DHT22;25977;45.462;9.210;2023-04-15T04:00:51;13.70;68.30
40257;DHT22;25977;45.462;9.210;2023-04-15T04:03:17;13.70;68.50
40257;DHT22;25977;45.462;9.210;2023-04-15T04:05:43;13.60;68.90
40257;DHT22;25977;45.462;9.210;2023-04-15T04:08:09;13.40;69.50
40257;DHT22;25977;45.462;9.210;2023-04-15T04:10:35;13.30;69.60
40257;DHT22;25977;45.462;9.210;2023-04-15T04:13:01;13.50;69.40
40257;DHT22;25977;45.462;9.210;2023-04-15T04:15:26;13.60;69.30
40257;DHT22;25977;45.462;9.210;2023-04-15T04:17:52;13.60;69.40
40257;DHT22;25977;45.462;9.210;2023-04-15T04:20:18;13.40;69.70
40257;DHT22;25977;45.462;9.210;2023-04-15T04:22:43;13.30;70.20
40257;DHT22;25977;45.462;9.210;2023-04-15T04:25:09;13.30;70.10
40257;DHT22;25977;45.462;9.210;2023-04-15T04:27:35;13.40;69.90
40257;DHT22;25977;45.462;9.210;2023-04-15T04:30:01;13.50;69.70
40257;DHT22;25977;45.462;9.210;2023-04-15T04:32:27;13.50;69.80
40257;DHT22;25977;45.462;9.210;2023-04-15T04:34:52;13.40;69.70
40257;DHT22;25977;45.462;9.210;2023-04-15T04:37:18;13.40;69.70
40257;DHT22;25977;45.462;9.210;2023-04-15T04:39:44;13.20;69.90
40257;DHT22;25977;45.462;9.210;2023-04-15T04:42:09;13.10;69.50
40257;DHT22;25977;45.462;9.210;2023-04-15T04:44:35;13.10;68.00
40257;DHT22;25977;45.462;9.210;2023-04-15T04:47:01;12.80;67.50
40257;DHT22;25977;45.462;9.210;2023-04-15T04:49:27;12.80;67.50
40257;DHT22;25977;45.462;9.210;2023-04-15T04:51:53;12.90;67.00
40257;DHT22;25977;45.462;9.210;2023-04-15T04:54:18;12.80;66.80
40257;DHT22;25977;45.462;9.210;2023-04-15T04:56:45;13.10;66.40
40257;DHT22;25977;45.462;9.210;2023-04-15T04:59:11;13.00;65.90
40257;DHT22;25977;45.462;9.210;2023-04-15T05:01:37;13.20;65.40
40257;DHT22;25977;45.462;9.210;2023-04-15T05:04:03;13.20;64.90
40257;DHT22;25977;45.462;9.210;2023-04-15T05:06:29;13.30;64.30
40257;DHT22;25977;45.462;9.210;2023-04-15T05:08:55;13.40;65.10
40257;DHT22;25977;45.462;9.210;2023-04-15T05:11:21;13.40;65.60
40257;DHT22;25977;45.462;9.210;2023-04-15T05:13:47;13.50;66.40
40257;DHT22;25977;45.462;9.210;2023-04-15T05:16:13;13.60;65.60
40257;DHT22;25977;45.462;9.210;2023-04-15T05:18:38;13.60;63.60
40257;DHT22;25977;45.462;9.210;2023-04-15T05:21:04;13.60;64.30
40257;DHT22;25977;45.462;9.210;2023-04-15T05:23:30;13.70;63.20
40257;DHT22;25977;45.462;9.210;2023-04-15T05:25:56;13.70;63.40
40257;DHT22;25977;45.462;9.210;2023-04-15T05:28:22;13.60;62.90
40257;DHT22;25977;45.462;9.210;2023-04-15T05:30:48;13.70;62.20
40257;DHT22;25977;45.462;9.210;2023-04-15T05:33:13;13.70;61.70
40257;DHT22;25977;45.462;9.210;2023-04-15T05:35:39;13.70;61.30
40257;DHT22;25977;45.462;9.210;2023-04-15T05:38:05;13.80;61.40
40257;DHT22;25977;45.462;9.210;2023-04-15T05:40:30;13.80;61.70
40257;DHT22;25977;45.462;9.210;2023-04-15T05:42:56;13.70;61.60
40257;DHT22;25977;45.462;9.210;2023-04-15T05:45:22;13.70;61.80
40257;DHT22;25977;45.462;9.210;2023-04-15T05:47:47;13.80;61.80
40257;DHT22;25977;45.462;9.210;2023-04-15T05:50:19;13.70;61.90
40257;DHT22;25977;45.462;9.210;2023-04-15T05:52:45;13.80;61.50
40257;DHT22;25977;45.462;9.210;2023-04-15T05:55:11;13.80;61.90
40257;DHT22;25977;45.462;9.210;2023-04-15T05:57:37;13.70;61.40
40257;DHT22;25977;45.462;9.210;2023-04-15T06:00:04;13.90;61.30
40257;DHT22;25977;45.462;9.210;2023-04-15T06:02:35;14.00;60.80
40257;DHT22;25977;45.462;9.210;2023-04-15T06:05:01;14.00;60.40
40257;DHT22;25977;45.462;9.210;2023-04-15T06:07:26;14.00;59.70
40257;DHT22;25977;45.462;9.210;2023-04-15T06:09:52;14.00;59.80
40257;DHT22;25977;45.462;9.210;2023-04-15T06:12:17;13.90;59.90
40257;DHT22;25977;45.462;9.210;2023-04-15T06:14:43;14.20;59.40
40257;DHT22;25977;45.462;9.210;2023-04-15T06:17:09;14.30;59.00
40257;DHT22;25977;45.462;9.210;2023-04-15T06:19:34;14.10;59.60
40257;DHT22;25977;45.462;9.210;2023-04-15T06:22:03;14.10;59.80
40257;DHT22;25977;45.462;9.210;2023-04-15T06:24:31;13.80;59.60
40257;DHT22;25977;45.462;9.210;2023-04-15T06:26:57;13.70;59.10
40257;DHT22;25977;45.462;9.210;2023-04-15T06:29:23;13.80;58.60
40257;DHT22;25977;45.462;9.210;2023-04-15T06:31:48;13.80;57.70
40257;DHT22;25977;45.462;9.210;2023-04-15T06:34:14;13.90;57.00
40257;DHT22;25977;45.462;9.210;2023-04-15T06:36:40;14.00;56.70
40257;DHT22;25977;45.462;9.210;2023-04-15T06:39:05;14.00;56.40
40257;DHT22;25977;45.462;9.210;2023-04-15T06:41:31;14.20;56.50
40257;DHT22;25977;45.462;9.210;2023-04-15T06:43:57;14.20;57.30
40257;DHT22;25977;45.462;9.210;2023-04-15T06:46:23;14.10;58.20
40257;DHT22;25977;45.462;9.210;2023-04-15T06:48:48;14.00;60.30
40257;DHT22;25977;45.462;9.210;2023-04-15T06:51:14;13.90;61.50
40257;DHT22;25977;45.462;9.210;2023-04-15T06:53:40;14.00;61.80
40257;DHT22;25977;45.462;9.210;2023-04-15T06:56:10;13.70;64.10
40257;DHT22;25977;45.462;9.210;2023-04-15T06:58:35;13.90;64.00
40257;DHT22;25977;45.462;9.210;2023-04-15T07:01:01;13.80;64.80
40257;DHT22;25977;45.462;9.210;2023-04-15T07:03:27;13.50;65.40
40257;DHT22;25977;45.462;9.210;2023-04-15T07:05:53;13.70;65.50
40257;DHT22;25977;45.462;9.210;2023-04-15T07:08:19;13.90;65.20
40257;DHT22;25977;45.462;9.210;2023-04-15T07:10:46;14.10;66.00
40257;DHT22;25977;45.462;9.210;2023-04-15T07:13:12;14.10;65.70
40257;DHT22;25977;45.462;9.210;2023-04-15T07:15:37;14.10;65.60
40257;DHT22;25977;45.462;9.210;2023-04-15T07:18:03;14.20;65.60
40257;DHT22;25977;45.462;9.210;2023-04-15T07:20:29;14.30;66.00
40257;DHT22;25977;45.462;9.210;2023-04-15T07:22:55;14.30;65.70
40257;DHT22;25977;45.462;9.210;2023-04-15T07:25:20;14.40;65.80
40257;DHT22;25977;45.462;9.210;2023-04-15T07:27:46;14.30;66.60
40257;DHT22;25977;45.462;9.210;2023-04-15T07:30:12;14.40;66.30
40257;DHT22;25977;45.462;9.210;2023-04-15T07:32:38;14.50;66.70
40257;DHT22;25977;45.462;9.210;2023-04-15T07:35:04;14.50;66.70
40257;DHT22;25977;45.462;9.210;2023-04-15T07:37:30;14.60;67.20
40257;DHT22;25977;45.462;9.210;2023-04-15T07:39:55;14.50;67.60
40257;DHT22;25977;45.462;9.210;2023-04-15T07:42:21;14.40;68.20
40257;DHT22;25977;45.462;9.210;2023-04-15T07:44:47;14.40;68.30
40257;DHT22;25977;45.462;9.210;2023-04-15T07:47:13;14.80;67.90
40257;DHT22;25977;45.462;9.210;2023-04-15T07:49:40;15.00;67.40
40257;DHT22;25977;45.462;9.210;2023-04-15T07:52:07;15.30;66.90
40257;DHT22;25977;45.462;9.210;2023-04-15T07:54:33;15.60;66.50
40257;DHT22;25977;45.462;9.210;2023-04-15T07:56:59;16.00;65.80
40257;DHT22;25977;45.462;9.210;2023-04-15T07:59:24;16.20;64.90
40257;DHT22;25977;45.462;9.210;2023-04-15T08:01:52;16.50;64.60
40257;DHT22;25977;45.462;9.210;2023-04-15T08:04:17;16.70;63.90
40257;DHT22;25977;45.462;9.210;2023-04-15T08:06:43;16.90;63.50
40257;DHT22;25977;45.462;9.210;2023-04-15T08:09:09;17.00;63.30
40257;DHT22;25977;45.462;9.210;2023-04-15T08:11:35;17.00;63.30
40257;DHT22;25977;45.462;9.210;2023-04-15T08:14:01;16.60;63.30
40257;DHT22;25977;45.462;9.210;2023-04-15T08:16:27;16.50;62.90
40257;DHT22;25977;45.462;9.210;2023-04-15T08:18:56;16.50;63.40
40257;DHT22;25977;45.462;9.210;2023-04-15T08:21:22;16.50;63.30
40257;DHT22;25977;45.462;9.210;2023-04-15T08:23:49;16.60;62.90
40257;DHT22;25977;45.462;9.210;2023-04-15T08:26:16;16.50;62.80
40257;DHT22;25977;45.462;9.210;2023-04-15T08:28:43;16.50;62.80
40257;DHT22;25977;45.462;9.210;2023-04-15T08:31:10;16.50;62.70
40257;DHT22;25977;45.462;9.210;2023-04-15T08:33:36;16.70;62.80
40257;DHT22;25977;45.462;9.210;2023-04-15T08:36:01;16.70;63.00
40257;DHT22;25977;45.462;9.210;2023-04-15T08:38:27;16.60;63.00
40257;DHT22;25977;45.462;9.210;2023-04-15T08:40:53;16.50;62.90
40257;DHT22;25977;45.462;9.210;2023-04-15T08:43:23;16.70;62.70
40257;DHT22;25977;45.462;9.210;2023-04-15T08:45:51;16.70;62.70
40257;DHT22;25977;45.462;9.210;2023-04-15T08:48:17;16.80;62.40
40257;DHT22;25977;45.462;9.210;2023-04-15T08:50:44;16.90;62.00
40257;DHT22;25977;45.462;9.210;2023-04-15T08:53:11;16.90;62.00
40257;DHT22;25977;45.462;9.210;2023-04-15T08:55:44;17.00;61.20
40257;DHT22;25977;45.462;9.210;2023-04-15T08:58:11;17.30;61.40
40257;DHT22;25977;45.462;9.210;2023-04-15T09:00:38;17.30;61.10
40257;DHT22;25977;45.462;9.210;2023-04-15T09:03:04;17.50;60.70
40257;DHT22;25977;45.462;9.210;2023-04-15T09:05:32;17.50;60.50
40257;DHT22;25977;45.462;9.210;2023-04-15T09:07:58;17.50;61.40
40257;DHT22;25977;45.462;9.210;2023-04-15T09:10:24;17.60;60.60
40257;DHT22;25977;45.462;9.210;2023-04-15T09:12:50;17.70;60.60
40257;DHT22;25977;45.462;9.210;2023-04-15T09:15:16;17.80;60.40
40257;DHT22;25977;45.462;9.210;2023-04-15T09:17:43;18.00;59.80
40257;DHT22;25977;45.462;9.210;2023-04-15T09:20:14;18.10;59.20
40257;DHT22;25977;45.462;9.210;2023-04-15T09:22:40;18.30;57.80
40257;DHT22;25977;45.462;9.210;2023-04-15T09:27:52;18.30;56.70
40257;DHT22;25977;45.462;9.210;2023-04-15T09:30:18;18.30;55.90
40257;DHT22;25977;45.462;9.210;2023-04-15T09:32:51;18.30;55.40
40257;DHT22;25977;45.462;9.210;2023-04-15T09:35:18;18.30;56.10
40257;DHT22;25977;45.462;9.210;2023-04-15T09:37:44;18.40;56.30
40257;DHT22;25977;45.462;9.210;2023-04-15T09:40:10;18.20;56.00
40257;DHT22;25977;45.462;9.210;2023-04-15T09:42:36;18.20;57.10
40257;DHT22;25977;45.462;9.210;2023-04-15T09:45:10;18.20;58.00
40257;DHT22;25977;45.462;9.210;2023-04-15T09:47:36;18.40;56.70
40257;DHT22;25977;45.462;9.210;2023-04-15T09:50:02;18.50;57.90
40257;DHT22;25977;45.462;9.210;2023-04-15T09:52:28;18.30;56.40
40257;DHT22;25977;45.462;9.210;2023-04-15T09:54:56;18.30;57.30
40257;DHT22;25977;45.462;9.210;2023-04-15T09:57:23;18.50;57.70
40257;DHT22;25977;45.462;9.210;2023-04-15T09:59:50;18.60;57.00
40257;DHT22;25977;45.462;9.210;2023-04-15T10:02:17;18.80;56.90
40257;DHT22;25977;45.462;9.210;2023-04-15T10:04:44;18.70;55.50
40257;DHT22;25977;45.462;9.210;2023-04-15T10:07:14;18.70;56.00
40257;DHT22;25977;45.462;9.210;2023-04-15T10:09:40;18.80;56.50
40257;DHT22;25977;45.462;9.210;2023-04-15T10:12:05;19.00;55.50
40257;DHT22;25977;45.462;9.210;2023-04-15T10:14:33;19.10;55.30
40257;DHT22;25977;45.462;9.210;2023-04-15T10:17:01;19.20;55.60
40257;DHT22;25977;45.462;9.210;2023-04-15T10:19:30;19.40;55.80
40257;DHT22;25977;45.462;9.210;2023-04-15T10:21:57;19.40;54.60
40257;DHT22;25977;45.462;9.210;2023-04-15T10:24:24;19.50;55.30
40257;DHT22;25977;45.462;9.210;2023-04-15T10:26:50;19.40;55.50
40257;DHT22;25977;45.462;9.210;2023-04-15T10:29:17;19.50;55.40
40257;DHT22;25977;45.462;9.210;2023-04-15T10:31:43;19.60;55.50
40257;DHT22;25977;45.462;9.210;2023-04-15T10:34:09;19.70;55.10
40257;DHT22;25977;45.462;9.210;2023-04-15T10:36:36;19.70;54.50
40257;DHT22;25977;45.462;9.210;2023-04-15T10:39:37;19.60;55.20
40257;DHT22;25977;45.462;9.210;2023-04-15T10:42:11;19.50;54.30
40257;DHT22;25977;45.462;9.210;2023-04-15T10:44:38;19.60;54.00
40257;DHT22;25977;45.462;9.210;2023-04-15T10:47:13;19.70;54.00
40257;DHT22;25977;45.462;9.210;2023-04-15T10:49:45;19.80;53.70
40257;DHT22;25977;45.462;9.210;2023-04-15T10:52:11;19.80;53.60
40257;DHT22;25977;45.462;9.210;2023-04-15T10:54:38;19.80;53.30
40257;DHT22;25977;45.462;9.210;2023-04-15T10:59:37;19.80;53.20
40257;DHT22;25977;45.462;9.210;2023-04-15T11:02:05;19.90;53.00
40257;DHT22;25977;45.462;9.210;2023-04-15T11:09:58;19.80;52.70
40257;DHT22;25977;45.462;9.210;2023-04-15T11:12:35;19.90;52.60
40257;DHT22;25977;45.462;9.210;2023-04-15T11:15:29;20.00;52.60
40257;DHT22;25977;45.462;9.210;2023-04-15T11:17:56;20.00;52.30
40257;DHT22;25977;45.462;9.210;2023-04-15T11:20:23;20.00;52.10
40257;DHT22;25977;45.462;9.210;2023-04-15T11:22:54;19.80;52.20
40257;DHT22;25977;45.462;9.210;2023-04-15T11:25:28;19.80;52.00
40257;DHT22;25977;45.462;9.210;2023-04-15T11:27:54;19.90;52.10
40257;DHT22;25977;45.462;9.210;2023-04-15T11:30:25;19.80;52.10
40257;DHT22;25977;45.462;9.210;2023-04-15T11:32:53;19.90;51.80
40257;DHT22;25977;45.462;9.210;2023-04-15T11:35:19;19.90;51.50
40257;DHT22;25977;45.462;9.210;2023-04-15T11:37:47;19.90;51.50
40257;DHT22;25977;45.462;9.210;2023-04-15T11:40:14;19.90;51.70
40257;DHT22;25977;45.462;9.210;2023-04-15T11:42:42;20.00;51.70
40257;DHT22;25977;45.462;9.210;2023-04-15T11:45:10;20.00;51.70
40257;DHT22;25977;45.462;9.210;2023-04-15T11:47:36;20.00;51.70
40257;DHT22;25977;45.462;9.210;2023-04-15T11:50:19;19.90;51.90
40257;DHT22;25977;45.462;9.210;2023-04-15T11:53:02;19.90;51.80
40257;DHT22;25977;45.462;9.210;2023-04-15T11:55:29;19.90;52.20
40257;DHT22;25977;45.462;9.210;2023-04-15T12:00:36;19.60;52.10
40257;DHT22;25977;45.462;9.210;2023-04-15T12:03:19;19.40;52.50
40257;DHT22;25977;45.462;9.210;2023-04-15T12:09:03;19.50;52.30
40257;DHT22;25977;45.462;9.210;2023-04-15T12:11:38;19.60;52.20
40257;DHT22;25977;45.462;9.210;2023-04-15T12:16:54;19.60;51.90
40257;DHT22;25977;45.462;9.210;2023-04-15T12:19:28;19.60;51.60
40257;DHT22;25977;45.462;9.210;2023-04-15T12:22:01;19.70;51.50
40257;DHT22;25977;45.462;9.210;2023-04-15T12:24:30;19.80;51.20
40257;DHT22;25977;45.462;9.210;2023-04-15T12:26:56;19.80;50.20
40257;DHT22;25977;45.462;9.210;2023-04-15T12:29:30;19.90;49.60
40257;DHT22;25977;45.462;9.210;2023-04-15T12:32:12;19.80;49.70
40257;DHT22;25977;45.462;9.210;2023-04-15T12:34:45;19.80;49.70
40257;DHT22;25977;45.462;9.210;2023-04-15T12:37:14;19.60;49.30
40257;DHT22;25977;45.462;9.210;2023-04-15T12:39:45;19.80;49.40
40257;DHT22;25977;45.462;9.210;2023-04-15T12:42:13;19.60;49.50
40257;DHT22;25977;45.462;9.210;2023-04-15T12:44:39;19.80;49.10
40257;DHT22;25977;45.462;9.210;2023-04-15T12:47:07;19.80;48.80
40257;DHT22;25977;45.462;9.210;2023-04-15T12:49:33;19.90;48.40
40257;DHT22;25977;45.462;9.210;2023-04-15T12:52:00;20.10;48.30
40257;DHT22;25977;45.462;9.210;2023-04-15T12:54:27;20.10;47.40
40257;DHT22;25977;45.462;9.210;2023-04-15T12:56:53;19.70;47.60
40257;DHT22;25977;45.462;9.210;2023-04-15T12:59:20;19.80;48.10
40257;DHT22;25977;45.462;9.210;2023-04-15T13:01:47;19.90;47.90
40257;DHT22;25977;45.462;9.210;2023-04-15T13:04:13;20.00;47.90
40257;DHT22;25977;45.462;9.210;2023-04-15T13:06:39;19.90;47.30
40257;DHT22;25977;45.462;9.210;2023-04-15T13:09:05;19.60;46.70
40257;DHT22;25977;45.462;9.210;2023-04-15T13:11:31;19.60;47.30
40257;DHT22;25977;45.462;9.210;2023-04-15T13:13:59;19.80;47.20
40257;DHT22;25977;45.462;9.210;2023-04-15T13:16:25;20.10;47.50
40257;DHT22;25977;45.462;9.210;2023-04-15T13:18:51;20.20;47.20
40257;DHT22;25977;45.462;9.210;2023-04-15T13:21:17;20.40;46.90
40257;DHT22;25977;45.462;9.210;2023-04-15T13:23:43;20.30;46.80
40257;DHT22;25977;45.462;9.210;2023-04-15T13:26:09;20.40;46.50
40257;DHT22;25977;45.462;9.210;2023-04-15T13:28:34;20.30;46.10
40257;DHT22;25977;45.462;9.210;2023-04-15T13:31:00;20.30;46.40
40257;DHT22;25977;45.462;9.210;2023-04-15T13:33:26;20.30;46.30
40257;DHT22;25977;45.462;9.210;2023-04-15T13:35:52;20.30;46.30
40257;DHT22;25977;45.462;9.210;2023-04-15T13:38:18;20.30;46.30
40257;DHT22;25977;45.462;9.210;2023-04-15T13:40:44;19.80;46.50
40257;DHT22;25977;45.462;9.210;2023-04-15T13:43:09;19.60;46.40
40257;DHT22;25977;45.462;9.210;2023-04-15T13:45:36;19.90;46.40
40257;DHT22;25977;45.462;9.210;2023-04-15T13:48:01;20.10;46.40
40257;DHT22;25977;45.462;9.210;2023-04-15T13:50:28;20.10;46.30
40257;DHT22;25977;45.462;9.210;2023-04-15T13:52:53;19.70;46.90
40257;DHT22;25977;45.462;9.210;2023-04-15T13:55:19;19.80;46.60
40257;DHT22;25977;45.462;9.210;2023-04-15T13:57:45;19.80;46.40
40257;DHT22;25977;45.462;9.210;2023-04-15T14:00:11;19.60;46.80
40257;DHT22;25977;45.462;9.210;2023-04-15T14:02:38;19.60;46.40
40257;DHT22;25977;45.462;9.210;2023-04-15T14:05:04;19.70;46.30
40257;DHT22;25977;45.462;9.210;2023-04-15T14:07:30;19.80;46.30
40257;DHT22;25977;45.462;9.210;2023-04-15T14:09:56;19.90;46.30
40257;DHT22;25977;45.462;9.210;2023-04-15T14:12:21;19.90;46.30
40257;DHT22;25977;45.462;9.210;2023-04-15T14:14:47;19.90;45.80
40257;DHT22;25977;45.462;9.210;2023-04-15T14:17:13;19.90;45.90
40257;DHT22;25977;45.462;9.210;2023-04-15T14:19:38;19.90;46.30
40257;DHT22;25977;45.462;9.210;2023-04-15T14:22:04;19.90;46.50
40257;DHT22;25977;45.462;9.210;2023-04-15T14:24:30;19.90;47.00
40257;DHT22;25977;45.462;9.210;2023-04-15T14:26:57;19.70;47.40
40257;DHT22;25977;45.462;9.210;2023-04-15T14:29:22;19.70;47.70
40257;DHT22;25977;45.462;9.210;2023-04-15T14:31:48;19.80;47.50
40257;DHT22;25977;45.462;9.210;2023-04-15T14:34:15;19.70;47.70
40257;DHT22;25977;45.462;9.210;2023-04-15T14:36:41;19.80;47.30
40257;DHT22;25977;45.462;9.210;2023-04-15T14:39:08;19.80;47.40
40257;DHT22;25977;45.462;9.210;2023-04-15T14:41:33;19.90;47.40
40257;DHT22;25977;45.462;9.210;2023-04-15T14:43:59;19.90;47.40
40257;DHT22;25977;45.462;9.210;2023-04-15T14:46:25;19.90;47.20
40257;DHT22;25977;45.462;9.210;2023-04-15T14:48:51;19.80;47.30
40257;DHT22;25977;45.462;9.210;2023-04-15T14:51:17;19.90;47.90
40257;DHT22;25977;45.462;9.210;2023-04-15T14:53:44;19.80;48.20
40257;DHT22;25977;45.462;9.210;2023-04-15T14:56:10;19.80;49.80
40257;DHT22;25977;45.462;9.210;2023-04-15T14:58:36;19.80;50.50
40257;DHT22;25977;45.462;9.210;2023-04-15T15:01:03;19.60;50.70
40257;DHT22;25977;45.462;9.210;2023-04-15T15:03:29;19.30;50.60
40257;DHT22;25977;45.462;9.210;2023-04-15T15:05:55;19.30;50.60
40257;DHT22;25977;45.462;9.210;2023-04-15T15:08:22;19.40;49.40
40257;DHT22;25977;45.462;9.210;2023-04-15T15:10:48;19.20;50.50
40257;DHT22;25977;45.462;9.210;2023-04-15T15:13:13;19.20;50.80
40257;DHT22;25977;45.462;9.210;2023-04-15T15:15:40;19.20;50.80
40257;DHT22;25977;45.462;9.210;2023-04-15T15:18:06;19.10;50.70
40257;DHT22;25977;45.462;9.210;2023-04-15T15:20:32;19.00;49.70
40257;DHT22;25977;45.462;9.210;2023-04-15T15:22:59;19.20;49.60
40257;DHT22;25977;45.462;9.210;2023-04-15T15:25:25;19.10;49.10
40257;DHT22;25977;45.462;9.210;2023-04-15T15:27:50;19.20;49.40
40257;DHT22;25977;45.462;9.210;2023-04-15T15:30:16;19.20;49.30
40257;DHT22;25977;45.462;9.210;2023-04-15T15:32:42;19.10;49.40
40257;DHT22;25977;45.462;9.210;2023-04-15T15:35:08;19.10;49.30
40257;DHT22;25977;45.462;9.210;2023-04-15T15:37:35;19.00;49.30
40257;DHT22;25977;45.462;9.210;2023-04-15T15:40:03;19.20;49.60
40257;DHT22;25977;45.462;9.210;2023-04-15T15:42:33;19.20;49.50
40257;DHT22;25977;45.462;9.210;2023-04-15T15:44:58;19.30;49.50
40257;DHT22;25977;45.462;9.210;2023-04-15T15:47:24;19.40;49.70